Adelma Beach, Washington
Current Conditions -  °F | °C
As of 4:56 AM on Friday 24 Oct 2014 (Local Time) from KNUW Reporting Station
Overcast Overcast  
Wind Chill: 53°   Ceiling: 1700
Heat Index: 53°   Visibility: 10mi
Dew Point: 46°   Wind: 8mph
Humidity: 77%   Direction: 110°ESE
Pressure: 30.03"   Gusts: NA
Location:  48.026°N, 122.859°W
Report Text: KNUW 241156Z 11007KT 10SM BKN017 BKN035 OVC100 12/08 A3003 RMK AO2 SLP171 70016 T01170078 10117 20106 52008 $
Loading
Personal Weather Stations






























Interactive Weather Map New forecast layout! Learn more

10-Day Weather Forecast

Advertisements
Track Severe Weather on mobile